sensor_id;sensor_type;location;lat;lon;timestamp;pressure;altitude;pressure_sealevel;temperature;humidity
69848;BME280;57143;55.940;37.496;2022-12-29T00:01:55;97322.19;;;-0.03;100.00
69848;BME280;57143;55.940;37.496;2022-12-29T00:04:23;97316.91;;;-0.10;100.00
69848;BME280;57143;55.940;37.496;2022-12-29T00:06:50;97328.16;;;-0.08;100.00
69848;BME280;57143;55.940;37.496;2022-12-29T00:09:19;97328.38;;;-0.09;100.00
69848;BME280;57143;55.940;37.496;2022-12-29T00:11:47;97320.56;;;-0.04;100.00
69848;BME280;57143;55.940;37.496;2022-12-29T00:14:15;97336.56;;;-0.04;100.00
69848;BME280;57143;55.940;37.496;2022-12-29T00:17:00;97334.72;;;-0.10;100.00
69848;BME280;57143;55.940;37.496;2022-12-29T00:19:27;97335.50;;;-0.03;100.00
69848;BME280;57143;55.940;37.496;2022-12-29T00:22:13;97302.63;;;-0.28;100.00
69848;BME280;57143;55.940;37.496;2022-12-29T00:24:58;97345.13;;;-0.09;100.00
69848;BME280;57143;55.940;37.496;2022-12-29T00:27:44;97361.34;;;-0.23;100.00
69848;BME280;57143;55.940;37.496;2022-12-29T00:30:28;97366.06;;;-0.25;100.00
69848;BME280;57143;55.940;37.496;2022-12-29T00:33:14;97361.16;;;-0.28;100.00
69848;BME280;57143;55.940;37.496;2022-12-29T00:36:02;97398.00;;;-0.32;100.00
69848;BME280;57143;55.940;37.496;2022-12-29T00:38:31;97408.03;;;-0.40;100.00
69848;BME280;57143;55.940;37.496;2022-12-29T00:41:17;97416.81;;;-0.40;100.00
69848;BME280;57143;55.940;37.496;2022-12-29T00:44:03;97431.38;;;-0.42;100.00
69848;BME280;57143;55.940;37.496;2022-12-29T00:46:34;97458.19;;;-0.37;100.00
69848;BME280;57143;55.940;37.496;2022-12-29T00:49:04;97468.22;;;-0.39;100.00
69848;BME280;57143;55.940;37.496;2022-12-29T00:51:49;97471.06;;;-0.41;100.00
69848;BME280;57143;55.940;37.496;2022-12-29T00:54:17;97480.69;;;-0.40;100.00
69848;BME280;57143;55.940;37.496;2022-12-29T00:56:46;97502.19;;;-0.41;100.00
69848;BME280;57143;55.940;37.496;2022-12-29T00:59:16;97497.47;;;-0.39;100.00
69848;BME280;57143;55.940;37.496;2022-12-29T01:01:44;97501.75;;;-0.45;100.00
69848;BME280;57143;55.940;37.496;2022-12-29T01:04:12;97525.72;;;-0.45;100.00
69848;BME280;57143;55.940;37.496;2022-12-29T01:06:40;97524.69;;;-0.50;100.00
69848;BME280;57143;55.940;37.496;2022-12-29T01:09:08;97535.28;;;-0.57;100.00
69848;BME280;57143;55.940;37.496;2022-12-29T01:11:53;97538.97;;;-0.64;100.00
69848;BME280;57143;55.940;37.496;2022-12-29T01:14:22;97560.50;;;-0.53;100.00
69848;BME280;57143;55.940;37.496;2022-12-29T01:16:50;97559.00;;;-0.62;100.00
69848;BME280;57143;55.940;37.496;2022-12-29T01:19:18;97570.06;;;-0.65;100.00
69848;BME280;57143;55.940;37.496;2022-12-29T01:21:45;97582.97;;;-0.62;100.00
69848;BME280;57143;55.940;37.496;2022-12-29T01:24:13;97586.03;;;-0.58;100.00
69848;BME280;57143;55.940;37.496;2022-12-29T01:26:41;97602.59;;;-0.69;100.00
69848;BME280;57143;55.940;37.496;2022-12-29T01:29:08;97605.28;;;-0.56;100.00
69848;BME280;57143;55.940;37.496;2022-12-29T01:31:37;97611.63;;;-0.57;100.00
69848;BME280;57143;55.940;37.496;2022-12-29T01:34:05;97610.59;;;-0.63;100.00
69848;BME280;57143;55.940;37.496;2022-12-29T01:36:33;97623.88;;;-0.69;100.00
69848;BME280;57143;55.940;37.496;2022-12-29T01:39:00;97629.38;;;-0.71;100.00
69848;BME280;57143;55.940;37.496;2022-12-29T01:41:27;97614.00;;;-0.75;100.00
69848;BME280;57143;55.940;37.496;2022-12-29T01:43:56;97591.94;;;-1.10;100.00
69848;BME280;57143;55.940;37.496;2022-12-29T01:46:26;97629.91;;;-0.88;100.00
69848;BME280;57143;55.940;37.496;2022-12-29T01:49:02;97645.69;;;-1.14;100.00
69848;BME280;57143;55.940;37.496;2022-12-29T01:51:34;97640.88;;;-1.26;100.00
69848;BME280;57143;55.940;37.496;2022-12-29T01:54:05;97637.03;;;-1.23;100.00
69848;BME280;57143;55.940;37.496;2022-12-29T01:56:36;97661.16;;;-1.25;100.00
69848;BME280;57143;55.940;37.496;2022-12-29T01:59:06;97671.41;;;-1.43;100.00
69848;BME280;57143;55.940;37.496;2022-12-29T02:01:37;97668.94;;;-1.44;100.00
69848;BME280;57143;55.940;37.496;2022-12-29T02:04:06;97685.53;;;-1.42;100.00
69848;BME280;57143;55.940;37.496;2022-12-29T02:06:39;97676.72;;;-1.43;100.00
69848;BME280;57143;55.940;37.496;2022-12-29T02:09:08;97648.47;;;-1.50;100.00
69848;BME280;57143;55.940;37.496;2022-12-29T02:11:36;97685.25;;;-1.26;100.00
69848;BME280;57143;55.940;37.496;2022-12-29T02:14:08;97637.03;;;-1.51;100.00
69848;BME280;57143;55.940;37.496;2022-12-29T02:16:45;97690.75;;;-1.28;100.00
69848;BME280;57143;55.940;37.496;2022-12-29T02:19:41;97685.38;;;-1.34;100.00
69848;BME280;57143;55.940;37.496;2022-12-29T02:22:20;97683.78;;;-1.29;100.00
69848;BME280;57143;55.940;37.496;2022-12-29T02:25:20;97688.72;;;-1.26;100.00
69848;BME280;57143;55.940;37.496;2022-12-29T02:28:12;97689.75;;;-1.27;100.00
69848;BME280;57143;55.940;37.496;2022-12-29T02:30:52;97705.72;;;-1.20;100.00
69848;BME280;57143;55.940;37.496;2022-12-29T02:33:34;97675.16;;;-1.09;100.00
69848;BME280;57143;55.940;37.496;2022-12-29T02:36:09;97682.25;;;-1.17;100.00
69848;BME280;57143;55.940;37.496;2022-12-29T02:38:50;97696.13;;;-1.21;100.00
69848;BME280;57143;55.940;37.496;2022-12-29T02:41:25;97690.88;;;-1.36;100.00
69848;BME280;57143;55.940;37.496;2022-12-29T02:44:01;97678.47;;;-1.29;100.00
69848;BME280;57143;55.940;37.496;2022-12-29T02:46:35;97688.28;;;-1.29;100.00
69848;BME280;57143;55.940;37.496;2022-12-29T02:49:08;97682.00;;;-1.22;100.00
69848;BME280;57143;55.940;37.496;2022-12-29T02:51:43;97682.78;;;-1.28;100.00
69848;BME280;57143;55.940;37.496;2022-12-29T02:54:13;97692.22;;;-1.25;100.00
69848;BME280;57143;55.940;37.496;2022-12-29T02:56:57;97695.19;;;-1.35;100.00
69848;BME280;57143;55.940;37.496;2022-12-29T02:59:25;97706.00;;;-1.36;100.00
69848;BME280;57143;55.940;37.496;2022-12-29T03:02:26;97705.25;;;-1.30;100.00
69848;BME280;57143;55.940;37.496;2022-12-29T03:05:22;97699.38;;;-1.47;100.00
69848;BME280;57143;55.940;37.496;2022-12-29T03:08:00;97689.72;;;-1.54;100.00
69848;BME280;57143;55.940;37.496;2022-12-29T03:10:37;97686.03;;;-1.53;100.00
69848;BME280;57143;55.940;37.496;2022-12-29T03:13:16;97710.06;;;-1.40;100.00
69848;BME280;57143;55.940;37.496;2022-12-29T03:16:14;97706.59;;;-1.41;100.00
69848;BME280;57143;55.940;37.496;2022-12-29T03:18:51;97698.81;;;-1.42;100.00
69848;BME280;57143;55.940;37.496;2022-12-29T03:21:26;97725.31;;;-1.49;100.00
69848;BME280;57143;55.940;37.496;2022-12-29T03:24:10;97703.88;;;-1.47;100.00
69848;BME280;57143;55.940;37.496;2022-12-29T03:26:39;97724.59;;;-1.36;100.00
69848;BME280;57143;55.940;37.496;2022-12-29T03:29:08;97732.56;;;-1.36;100.00
69848;BME280;57143;55.940;37.496;2022-12-29T03:31:37;97724.34;;;-1.41;100.00
69848;BME280;57143;55.940;37.496;2022-12-29T03:34:07;97727.41;;;-1.44;100.00
69848;BME280;57143;55.940;37.496;2022-12-29T03:36:42;97720.13;;;-1.57;100.00
69848;BME280;57143;55.940;37.496;2022-12-29T03:39:12;97730.19;;;-1.52;100.00
69848;BME280;57143;55.940;37.496;2022-12-29T03:41:42;97749.97;;;-1.55;100.00
69848;BME280;57143;55.940;37.496;2022-12-29T03:44:11;97747.31;;;-1.55;100.00
69848;BME280;57143;55.940;37.496;2022-12-29T03:46:39;97759.03;;;-1.49;100.00
69848;BME280;57143;55.940;37.496;2022-12-29T03:49:08;97750.34;;;-1.58;100.00
69848;BME280;57143;55.940;37.496;2022-12-29T03:51:35;97764.03;;;-1.61;100.00
69848;BME280;57143;55.940;37.496;2022-12-29T03:54:02;97772.00;;;-1.61;100.00
69848;BME280;57143;55.940;37.496;2022-12-29T03:56:29;97767.47;;;-1.60;100.00
69848;BME280;57143;55.940;37.496;2022-12-29T03:58:57;97771.41;;;-1.56;100.00
69848;BME280;57143;55.940;37.496;2022-12-29T04:01:24;97773.63;;;-1.60;100.00
69848;BME280;57143;55.940;37.496;2022-12-29T04:03:51;97790.75;;;-1.62;100.00
69848;BME280;57143;55.940;37.496;2022-12-29T04:06:19;97777.75;;;-1.57;100.00
69848;BME280;57143;55.940;37.496;2022-12-29T04:08:47;97782.16;;;-1.64;100.00
69848;BME280;57143;55.940;37.496;2022-12-29T04:11:14;97787.91;;;-1.61;100.00
69848;BME280;57143;55.940;37.496;2022-12-29T04:13:41;97779.50;;;-1.64;100.00
69848;BME280;57143;55.940;37.496;2022-12-29T04:16:09;97783.06;;;-1.57;100.00
69848;BME280;57143;55.940;37.496;2022-12-29T04:18:36;97781.84;;;-1.55;100.00
69848;BME280;57143;55.940;37.496;2022-12-29T04:21:03;97795.97;;;-1.69;100.00
69848;BME280;57143;55.940;37.496;2022-12-29T04:23:34;97793.50;;;-1.70;100.00
69848;BME280;57143;55.940;37.496;2022-12-29T04:26:02;97786.44;;;-1.63;100.00
69848;BME280;57143;55.940;37.496;2022-12-29T04:28:29;97785.00;;;-1.66;100.00
69848;BME280;57143;55.940;37.496;2022-12-29T04:30:57;97783.97;;;-1.65;100.00
69848;BME280;57143;55.940;37.496;2022-12-29T04:33:24;97785.09;;;-1.74;100.00
69848;BME280;57143;55.940;37.496;2022-12-29T04:35:52;97790.66;;;-1.69;100.00
69848;BME280;57143;55.940;37.496;2022-12-29T04:38:20;97792.44;;;-1.76;100.00
69848;BME280;57143;55.940;37.496;2022-12-29T04:40:49;97789.03;;;-1.70;100.00
69848;BME280;57143;55.940;37.496;2022-12-29T04:43:17;97792.81;;;-1.79;100.00
69848;BME280;57143;55.940;37.496;2022-12-29T04:45:45;97793.81;;;-1.80;100.00
69848;BME280;57143;55.940;37.496;2022-12-29T04:48:13;97781.72;;;-1.82;100.00
69848;BME280;57143;55.940;37.496;2022-12-29T04:50:40;97796.81;;;-1.68;100.00
69848;BME280;57143;55.940;37.496;2022-12-29T04:53:08;97803.50;;;-1.72;100.00
69848;BME280;57143;55.940;37.496;2022-12-29T04:55:35;97802.84;;;-1.74;100.00
69848;BME280;57143;55.940;37.496;2022-12-29T04:58:03;97801.88;;;-1.73;100.00
69848;BME280;57143;55.940;37.496;2022-12-29T05:00:31;97804.34;;;-1.86;100.00
69848;BME280;57143;55.940;37.496;2022-12-29T05:02:58;97780.28;;;-1.85;100.00
69848;BME280;57143;55.940;37.496;2022-12-29T05:05:25;97808.66;;;-1.85;100.00
69848;BME280;57143;55.940;37.496;2022-12-29T05:07:52;97814.69;;;-1.91;100.00
69848;BME280;57143;55.940;37.496;2022-12-29T05:10:20;97815.34;;;-1.89;100.00
69848;BME280;57143;55.940;37.496;2022-12-29T05:12:47;97825.69;;;-1.94;100.00
69848;BME280;57143;55.940;37.496;2022-12-29T05:15:16;97833.38;;;-1.99;100.00
69848;BME280;57143;55.940;37.496;2022-12-29T05:17:43;97831.13;;;-2.02;100.00
69848;BME280;57143;55.940;37.496;2022-12-29T05:20:10;97832.09;;;-2.03;100.00
69848;BME280;57143;55.940;37.496;2022-12-29T05:22:37;97838.81;;;-2.07;100.00
69848;BME280;57143;55.940;37.496;2022-12-29T05:25:05;97829.75;;;-2.13;100.00
69848;BME280;57143;55.940;37.496;2022-12-29T05:27:32;97832.50;;;-2.21;100.00
69848;BME280;57143;55.940;37.496;2022-12-29T05:30:00;97853.16;;;-2.02;100.00
69848;BME280;57143;55.940;37.496;2022-12-29T05:32:28;97851.97;;;-1.99;100.00
69848;BME280;57143;55.940;37.496;2022-12-29T05:34:56;97853.53;;;-1.90;100.00
69848;BME280;57143;55.940;37.496;2022-12-29T05:37:23;97863.94;;;-2.03;100.00
69848;BME280;57143;55.940;37.496;2022-12-29T05:39:50;97869.09;;;-2.16;100.00
69848;BME280;57143;55.940;37.496;2022-12-29T05:42:17;97877.88;;;-2.16;100.00
69848;BME280;57143;55.940;37.496;2022-12-29T05:44:44;97872.44;;;-2.22;100.00
69848;BME280;57143;55.940;37.496;2022-12-29T05:47:12;97885.72;;;-2.22;100.00
69848;BME280;57143;55.940;37.496;2022-12-29T05:49:40;97882.72;;;-2.19;100.00
69848;BME280;57143;55.940;37.496;2022-12-29T05:52:07;97886.75;;;-2.23;100.00
69848;BME280;57143;55.940;37.496;2022-12-29T05:54:35;97887.75;;;-2.24;100.00
69848;BME280;57143;55.940;37.496;2022-12-29T05:57:02;97873.75;;;-2.33;100.00
69848;BME280;57143;55.940;37.496;2022-12-29T05:59:29;97879.22;;;-2.35;100.00
69848;BME280;57143;55.940;37.496;2022-12-29T06:01:56;97893.69;;;-2.37;100.00
69848;BME280;57143;55.940;37.496;2022-12-29T06:04:24;97878.47;;;-2.58;100.00
69848;BME280;57143;55.940;37.496;2022-12-29T06:06:52;97887.72;;;-2.39;100.00
69848;BME280;57143;55.940;37.496;2022-12-29T06:09:19;97901.63;;;-2.37;100.00
69848;BME280;57143;55.940;37.496;2022-12-29T06:11:46;97904.75;;;-2.33;100.00
69848;BME280;57143;55.940;37.496;2022-12-29T06:14:13;97895.59;;;-2.31;100.00
69848;BME280;57143;55.940;37.496;2022-12-29T06:16:41;97903.34;;;-2.44;100.00
69848;BME280;57143;55.940;37.496;2022-12-29T06:19:08;97913.69;;;-2.49;100.00
69848;BME280;57143;55.940;37.496;2022-12-29T06:21:35;97921.72;;;-2.57;100.00
69848;BME280;57143;55.940;37.496;2022-12-29T06:24:05;97913.28;;;-2.61;100.00
69848;BME280;57143;55.940;37.496;2022-12-29T06:26:33;97906.63;;;-2.79;100.00
69848;BME280;57143;55.940;37.496;2022-12-29T06:29:00;97908.91;;;-2.54;100.00
69848;BME280;57143;55.940;37.496;2022-12-29T06:31:28;97908.47;;;-2.43;100.00
69848;BME280;57143;55.940;37.496;2022-12-29T06:33:55;97913.41;;;-2.40;100.00
69848;BME280;57143;55.940;37.496;2022-12-29T06:36:23;97925.22;;;-2.42;100.00
69848;BME280;57143;55.940;37.496;2022-12-29T06:38:50;97915.41;;;-2.56;100.00
69848;BME280;57143;55.940;37.496;2022-12-29T06:41:19;97914.34;;;-2.47;100.00
69848;BME280;57143;55.940;37.496;2022-12-29T06:43:46;97907.31;;;-2.25;100.00
69848;BME280;57143;55.940;37.496;2022-12-29T06:46:14;97903.78;;;-2.55;100.00
69848;BME280;57143;55.940;37.496;2022-12-29T06:48:41;97907.41;;;-2.33;100.00
69848;BME280;57143;55.940;37.496;2022-12-29T06:51:08;97935.97;;;-2.58;100.00
69848;BME280;57143;55.940;37.496;2022-12-29T06:53:36;97927.03;;;-2.43;100.00
69848;BME280;57143;55.940;37.496;2022-12-29T06:56:03;97937.38;;;-2.48;100.00
69848;BME280;57143;55.940;37.496;2022-12-29T06:58:32;97940.38;;;-2.51;100.00
69848;BME280;57143;55.940;37.496;2022-12-29T07:00:59;97930.91;;;-2.68;100.00
69848;BME280;57143;55.940;37.496;2022-12-29T07:03:27;97938.31;;;-2.63;100.00
69848;BME280;57143;55.940;37.496;2022-12-29T07:05:54;97947.91;;;-2.62;100.00
69848;BME280;57143;55.940;37.496;2022-12-29T07:08:23;97911.53;;;-2.68;100.00
69848;BME280;57143;55.940;37.496;2022-12-29T07:10:50;97950.41;;;-2.61;100.00
69848;BME280;57143;55.940;37.496;2022-12-29T07:13:18;97941.19;;;-2.50;100.00
69848;BME280;57143;55.940;37.496;2022-12-29T07:15:46;97932.75;;;-2.54;100.00
69848;BME280;57143;55.940;37.496;2022-12-29T07:18:13;97957.75;;;-2.48;100.00
69848;BME280;57143;55.940;37.496;2022-12-29T07:20:41;97957.34;;;-2.37;100.00
69848;BME280;57143;55.940;37.496;2022-12-29T07:23:08;97949.38;;;-2.37;100.00
69848;BME280;57143;55.940;37.496;2022-12-29T07:25:35;97960.81;;;-2.37;100.00
69848;BME280;57143;55.940;37.496;2022-12-29T07:28:03;97963.41;;;-2.51;100.00
69848;BME280;57143;55.940;37.496;2022-12-29T07:30:30;97963.03;;;-2.63;100.00
69848;BME280;57143;55.940;37.496;2022-12-29T07:32:59;97969.84;;;-2.68;100.00
69848;BME280;57143;55.940;37.496;2022-12-29T07:35:26;97947.34;;;-2.72;100.00
69848;BME280;57143;55.940;37.496;2022-12-29T07:37:53;97981.97;;;-2.51;100.00
69848;BME280;57143;55.940;37.496;2022-12-29T07:40:20;97982.06;;;-2.59;100.00
69848;BME280;57143;55.940;37.496;2022-12-29T07:42:47;97978.91;;;-2.40;100.00
69848;BME280;57143;55.940;37.496;2022-12-29T07:45:15;97973.59;;;-2.17;100.00
69848;BME280;57143;55.940;37.496;2022-12-29T07:47:42;97964.31;;;-2.21;100.00
69848;BME280;57143;55.940;37.496;2022-12-29T07:50:10;97977.31;;;-2.26;100.00
69848;BME280;57143;55.940;37.496;2022-12-29T07:52:38;97983.69;;;-2.36;100.00
69848;BME280;57143;55.940;37.496;2022-12-29T07:55:06;97990.81;;;-2.36;100.00
69848;BME280;57143;55.940;37.496;2022-12-29T07:57:33;97991.72;;;-2.44;100.00
69848;BME280;57143;55.940;37.496;2022-12-29T08:00:00;97971.28;;;-2.43;100.00
69848;BME280;57143;55.940;37.496;2022-12-29T08:02:31;97982.03;;;-2.37;100.00
69848;BME280;57143;55.940;37.496;2022-12-29T08:04:58;97995.63;;;-2.40;100.00
69848;BME280;57143;55.940;37.496;2022-12-29T08:07:27;97995.00;;;-2.42;100.00
69848;BME280;57143;55.940;37.496;2022-12-29T08:09:54;98002.16;;;-2.27;100.00
69848;BME280;57143;55.940;37.496;2022-12-29T08:12:21;98006.38;;;-2.33;100.00
69848;BME280;57143;55.940;37.496;2022-12-29T08:14:48;98016.38;;;-2.43;100.00
69848;BME280;57143;55.940;37.496;2022-12-29T08:17:16;98005.25;;;-2.39;100.00
69848;BME280;57143;55.940;37.496;2022-12-29T08:19:43;98018.72;;;-2.40;100.00
69848;BME280;57143;55.940;37.496;2022-12-29T08:22:10;98000.88;;;-2.09;100.00
69848;BME280;57143;55.940;37.496;2022-12-29T08:24:39;98000.88;;;-2.09;100.00
69848;BME280;57143;55.940;37.496;2022-12-29T08:27:06;97981.97;;;-2.14;100.00
69848;BME280;57143;55.940;37.496;2022-12-29T08:29:33;98016.91;;;-2.25;100.00
69848;BME280;57143;55.940;37.496;2022-12-29T08:32:00;98010.25;;;-2.21;100.00
69848;BME280;57143;55.940;37.496;2022-12-29T08:34:27;98013.06;;;-2.22;100.00
69848;BME280;57143;55.940;37.496;2022-12-29T08:36:54;97998.56;;;-2.12;100.00
69848;BME280;57143;55.940;37.496;2022-12-29T08:39:22;97988.09;;;-2.28;100.00
69848;BME280;57143;55.940;37.496;2022-12-29T08:41:51;98014.56;;;-2.20;100.00
69848;BME280;57143;55.940;37.496;2022-12-29T08:44:18;98036.06;;;-2.38;100.00
69848;BME280;57143;55.940;37.496;2022-12-29T08:46:46;98030.84;;;-2.46;100.00
69848;BME280;57143;55.940;37.496;2022-12-29T08:49:13;98027.00;;;-2.43;100.00
69848;BME280;57143;55.940;37.496;2022-12-29T08:51:40;98036.50;;;-2.49;100.00
69848;BME280;57143;55.940;37.496;2022-12-29T08:54:08;98031.53;;;-2.29;100.00
69848;BME280;57143;55.940;37.496;2022-12-29T08:56:35;98035.38;;;-2.31;100.00
69848;BME280;57143;55.940;37.496;2022-12-29T08:59:03;98017.44;;;-2.29;100.00
69848;BME280;57143;55.940;37.496;2022-12-29T09:01:31;98041.78;;;-2.26;100.00
69848;BME280;57143;55.940;37.496;2022-12-29T09:03:59;98036.25;;;-2.16;100.00
69848;BME280;57143;55.940;37.496;2022-12-29T09:06:26;98030.88;;;-2.08;100.00
69848;BME280;57143;55.940;37.496;2022-12-29T09:08:53;98021.63;;;-2.12;100.00
69848;BME280;57143;55.940;37.496;2022-12-29T09:11:22;98024.06;;;-1.88;100.00
69848;BME280;57143;55.940;37.496;2022-12-29T09:13:50;98036.59;;;-1.97;100.00
69848;BME280;57143;55.940;37.496;2022-12-29T09:16:20;98024.00;;;-2.17;100.00
69848;BME280;57143;55.940;37.496;2022-12-29T09:18:48;98049.13;;;-2.05;100.00
69848;BME280;57143;55.940;37.496;2022-12-29T09:21:16;98017.22;;;-2.20;100.00
69848;BME280;57143;55.940;37.496;2022-12-29T09:23:43;98040.00;;;-1.88;100.00
69848;BME280;57143;55.940;37.496;2022-12-29T09:26:11;98041.09;;;-1.83;100.00
69848;BME280;57143;55.940;37.496;2022-12-29T09:28:38;98045.31;;;-1.88;100.00
69848;BME280;57143;55.940;37.496;2022-12-29T09:31:06;98042.19;;;-1.92;100.00
69848;BME280;57143;55.940;37.496;2022-12-29T09:33:35;98042.41;;;-2.01;100.00
69848;BME280;57143;55.940;37.496;2022-12-29T09:36:02;98035.31;;;-1.86;100.00
69848;BME280;57143;55.940;37.496;2022-12-29T09:38:30;98064.31;;;-2.22;100.00
69848;BME280;57143;55.940;37.496;2022-12-29T09:41:01;98049.88;;;-2.19;100.00
69848;BME280;57143;55.940;37.496;2022-12-29T09:43:59;98072.47;;;-2.23;100.00
69848;BME280;57143;55.940;37.496;2022-12-29T09:46:33;98048.88;;;-2.41;100.00
69848;BME280;57143;55.940;37.496;2022-12-29T09:49:11;98034.00;;;-2.50;100.00
69848;BME280;57143;55.940;37.496;2022-12-29T09:51:43;98077.06;;;-2.40;100.00
69848;BME280;57143;55.940;37.496;2022-12-29T09:54:23;98028.94;;;-2.60;100.00
69848;BME280;57143;55.940;37.496;2022-12-29T09:56:52;98069.50;;;-2.28;100.00
69848;BME280;57143;55.940;37.496;2022-12-29T09:59:22;98074.63;;;-2.27;100.00
69848;BME280;57143;55.940;37.496;2022-12-29T10:01:54;98069.16;;;-2.25;100.00
69848;BME280;57143;55.940;37.496;2022-12-29T10:04:27;98054.22;;;-2.04;100.00
69848;BME280;57143;55.940;37.496;2022-12-29T10:06:57;98031.78;;;-2.39;100.00
69848;BME280;57143;55.940;37.496;2022-12-29T10:09:30;98071.63;;;-2.24;100.00
69848;BME280;57143;55.940;37.496;2022-12-29T10:12:12;98072.53;;;-2.31;100.00
69848;BME280;57143;55.940;37.496;2022-12-29T10:14:55;98071.03;;;-2.34;100.00
69848;BME280;57143;55.940;37.496;2022-12-29T10:17:29;98075.22;;;-2.40;100.00
69848;BME280;57143;55.940;37.496;2022-12-29T10:20:22;98075.03;;;-2.38;100.00
69848;BME280;57143;55.940;37.496;2022-12-29T10:23:17;98064.78;;;-2.41;100.00
69848;BME280;57143;55.940;37.496;2022-12-29T10:25:48;98060.13;;;-2.39;100.00
69848;BME280;57143;55.940;37.496;2022-12-29T10:28:19;97999.94;;;-2.84;100.00
69848;BME280;57143;55.940;37.496;2022-12-29T10:30:48;98067.72;;;-2.59;100.00
69848;BME280;57143;55.940;37.496;2022-12-29T10:33:18;98084.06;;;-2.47;100.00
69848;BME280;57143;55.940;37.496;2022-12-29T10:35:48;98076.19;;;-2.63;100.00
69848;BME280;57143;55.940;37.496;2022-12-29T10:38:22;98073.63;;;-2.26;100.00
69848;BME280;57143;55.940;37.496;2022-12-29T10:40:56;98062.97;;;-2.18;100.00
69848;BME280;57143;55.940;37.496;2022-12-29T10:43:27;98041.28;;;-2.44;100.00
69848;BME280;57143;55.940;37.496;2022-12-29T10:45:57;98043.94;;;-2.21;100.00
69848;BME280;57143;55.940;37.496;2022-12-29T10:48:27;98026.03;;;-2.27;100.00
69848;BME280;57143;55.940;37.496;2022-12-29T10:50:58;98046.56;;;-2.21;100.00
69848;BME280;57143;55.940;37.496;2022-12-29T10:53:30;98048.41;;;-2.22;100.00
69848;BME280;57143;55.940;37.496;2022-12-29T10:56:01;98031.06;;;-2.10;100.00
69848;BME280;57143;55.940;37.496;2022-12-29T10:58:30;98048.66;;;-2.09;100.00
69848;BME280;57143;55.940;37.496;2022-12-29T11:00:58;98014.47;;;-2.12;100.00
69848;BME280;57143;55.940;37.496;2022-12-29T11:03:51;98017.56;;;-1.86;100.00
69848;BME280;57143;55.940;37.496;2022-12-29T11:06:24;98018.84;;;-1.82;100.00
69848;BME280;57143;55.940;37.496;2022-12-29T11:08:56;98017.38;;;-1.84;100.00
69848;BME280;57143;55.940;37.496;2022-12-29T11:11:26;98028.88;;;-1.69;100.00
69848;BME280;57143;55.940;37.496;2022-12-29T11:13:58;98021.34;;;-1.66;100.00
69848;BME280;57143;55.940;37.496;2022-12-29T11:16:31;98025.56;;;-1.71;100.00
69848;BME280;57143;55.940;37.496;2022-12-29T11:18:58;98009.59;;;-1.86;100.00
69848;BME280;57143;55.940;37.496;2022-12-29T11:21:31;98025.56;;;-1.71;100.00
69848;BME280;57143;55.940;37.496;2022-12-29T11:24:00;98029.94;;;-1.78;100.00
69848;BME280;57143;55.940;37.496;2022-12-29T11:26:29;98021.31;;;-1.80;100.00
69848;BME280;57143;55.940;37.496;2022-12-29T11:29:17;98005.22;;;-1.93;100.00
69848;BME280;57143;55.940;37.496;2022-12-29T11:31:47;98020.31;;;-1.79;100.00
69848;BME280;57143;55.940;37.496;2022-12-29T11:34:20;98021.88;;;-1.85;100.00
69848;BME280;57143;55.940;37.496;2022-12-29T11:36:51;98026.44;;;-1.79;100.00
69848;BME280;57143;55.940;37.496;2022-12-29T11:39:28;98031.22;;;-1.74;100.00
69848;BME280;57143;55.940;37.496;2022-12-29T11:41:56;98030.97;;;-1.65;100.00
69848;BME280;57143;55.940;37.496;2022-12-29T11:44:24;98032.31;;;-1.69;100.00
69848;BME280;57143;55.940;37.496;2022-12-29T11:46:52;98046.84;;;-1.79;100.00
69848;BME280;57143;55.940;37.496;2022-12-29T11:49:21;98055.47;;;-1.77;100.00
69848;BME280;57143;55.940;37.496;2022-12-29T11:51:52;97999.25;;;-1.95;100.00
69848;BME280;57143;55.940;37.496;2022-12-29T11:54:24;98054.03;;;-1.65;100.00
69848;BME280;57143;55.940;37.496;2022-12-29T11:56:54;98050.81;;;-1.75;100.00
69848;BME280;57143;55.940;37.496;2022-12-29T11:59:36;97955.66;;;-2.38;100.00
69848;BME280;57143;55.940;37.496;2022-12-29T12:02:23;98055.47;;;-1.77;100.00
69848;BME280;57143;55.940;37.496;2022-12-29T12:04:56;98066.19;;;-1.71;100.00
69848;BME280;57143;55.940;37.496;2022-12-29T12:07:37;98076.00;;;-1.71;100.00
69848;BME280;57143;55.940;37.496;2022-12-29T12:10:10;98071.34;;;-1.69;100.00
69848;BME280;57143;55.940;37.496;2022-12-29T12:12:44;98051.38;;;-1.65;100.00
69848;BME280;57143;55.940;37.496;2022-12-29T12:15:19;98072.44;;;-1.64;100.00
69848;BME280;57143;55.940;37.496;2022-12-29T12:17:51;98050.63;;;-1.74;100.00
69848;BME280;57143;55.940;37.496;2022-12-29T12:20:22;98064.09;;;-1.75;100.00
69848;BME280;57143;55.940;37.496;2022-12-29T12:22:59;98025.22;;;-2.05;100.00
69848;BME280;57143;55.940;37.496;2022-12-29T12:25:33;98078.84;;;-1.73;100.00
69848;BME280;57143;55.940;37.496;2022-12-29T12:28:10;98070.59;;;-1.78;100.00
69848;BME280;57143;55.940;37.496;2022-12-29T12:30:40;98039.31;;;-2.05;100.00
69848;BME280;57143;55.940;37.496;2022-12-29T12:33:18;97970.13;;;-2.41;100.00
69848;BME280;57143;55.940;37.496;2022-12-29T12:36:01;98061.00;;;-1.64;100.00
69848;BME280;57143;55.940;37.496;2022-12-29T12:38:37;98049.97;;;-1.76;100.00
69848;BME280;57143;55.940;37.496;2022-12-29T12:41:10;98056.88;;;-1.67;100.00
69848;BME280;57143;55.940;37.496;2022-12-29T12:43:41;98057.06;;;-1.68;100.00
69848;BME280;57143;55.940;37.496;2022-12-29T12:46:41;98069.06;;;-1.58;100.00
69848;BME280;57143;55.940;37.496;2022-12-29T12:49:30;98067.25;;;-1.57;100.00
69848;BME280;57143;55.940;37.496;2022-12-29T12:52:08;98063.66;;;-1.50;100.00
69848;BME280;57143;55.940;37.496;2022-12-29T12:54:51;97990.25;;;-1.94;100.00
69848;BME280;57143;55.940;37.496;2022-12-29T12:57:39;98064.03;;;-1.53;100.00
69848;BME280;57143;55.940;37.496;2022-12-29T13:00:12;98061.09;;;-1.58;100.00
69848;BME280;57143;55.940;37.496;2022-12-29T13:02:50;98050.38;;;-1.50;100.00